Погода Бирючевона 2 недели

Тверская область, Россия

24 мая-06 июня
  • 24мая
    Сегодня
    +7°
    +23°
    Ясно и безоблачно
    ВремяПогодаТемператураВлажностьДавлениеВетер, м/сВероятность осадков
    00:00Практически безоблачно+10°C61 %754 мм2.0 м/с2 %
    03:00Ясно и безоблачно+7°C69 %754 мм2.3 м/с2 %
    06:00Ясно и безоблачно+9°C66 %755 мм2.5 м/с2 %
    09:00Ясно и безоблачно+18°C53 %756 мм2.1 м/с2 %
    12:00Практически безоблачно+21°C35 %756 мм1.6 м/с2 %
    15:00Ясно и безоблачно+23°C34 %755 мм2.0 м/с2 %
    18:00Ясно и безоблачно+22°C35 %754 мм2.5 м/с2 %
    21:00Ясно и безоблачно+16°C54 %754 мм2.7 м/с2 %
  • 25мая
    Суббота
    +10°
    +24°
    Ясно и безоблачно
    ВремяПогодаТемператураВлажностьДавлениеВетер, м/сВероятность осадков
    00:00Ясно и безоблачно+10°C65 %754 мм2.5 м/с2 %
    03:00Ясно и безоблачно+8°C67 %754 мм3.1 м/с2 %
    06:00Ясно и безоблачно+10°C65 %754 мм2.7 м/с2 %
    09:00Ясно и безоблачно+18°C45 %753 мм3.0 м/с2 %
    12:00Ясно и безоблачно+21°C35 %753 мм3.1 м/с2 %
    15:00Ясно и безоблачно+23°C33 %752 мм3.2 м/с2 %
    18:00Ясно и безоблачно+24°C35 %750 мм3.4 м/с2 %
    21:00Ясно и безоблачно+18°C55 %750 мм2.4 м/с2 %
  • 26мая
    Воскресенье
    +6°
    +22°
    Облачно с прояснениями, небольшой дождь
    ВремяПогодаТемператураВлажностьДавлениеВетер, м/сВероятность осадков
    00:00Ясно и безоблачно+12°C63 %749 мм2.6 м/с2 %
    03:00Ясно и безоблачно+10°C71 %749 мм2.6 м/с2 %
    06:00Ясно и безоблачно+13°C70 %749 мм2.5 м/с1 %
    09:00Облачно с прояснениями+19°C64 %750 мм1.5 м/с18 %
    12:00Пасмурно, дождь+18°C78 %751 мм3.0 м/с47 %
    15:00Облачно с прояснениями, небольшой дождь+20°C62 %751 мм2.9 м/с57 %
    18:00Небольшая облачность+21°C52 %751 мм2.2 м/с29 %
    21:00Ясно и безоблачно+17°C52 %751 мм3.2 м/с7 %
  • 27мая
    Понедельник
    +9°
    +23°
    Ясно и безоблачно
    ВремяПогодаТемператураВлажностьДавлениеВетер, м/сВероятность осадков
    00:00Ясно и безоблачно+11°C58 %752 мм2.9 м/с2 %
    03:00Ясно и безоблачно+8°C63 %752 мм2.6 м/с2 %
    06:00Практически безоблачно+8°C68 %753 мм2.6 м/с2 %
    09:00Практически безоблачно+17°C54 %753 мм2.1 м/с2 %
    12:00Практически безоблачно+20°C43 %753 мм2.2 м/с4 %
    15:00Ясно и безоблачно+22°C38 %752 мм1.8 м/с2 %
    18:00Ясно и безоблачно+23°C39 %751 мм1.1 м/с4 %
    21:00Ясно и безоблачно+17°C62 %751 мм1.6 м/с3 %
  • 28мая
    Вторник
    +10°
    +26°
    Практически безоблачно
    ВремяПогодаТемператураВлажностьДавлениеВетер, м/сВероятность осадков
    00:00Ясно и безоблачно+15°C54 %750 мм1.7 м/с2 %
    03:00Ясно и безоблачно+9°C75 %750 мм2.0 м/с2 %
    06:00Ясно и безоблачно+10°C70 %750 мм1.6 м/с2 %
    09:00Ясно и безоблачно+21°C53 %750 мм1.1 м/с2 %
    12:00Ясно и безоблачно+24°C43 %750 мм1.1 м/с12 %
    15:00Практически безоблачно+25°C35 %749 мм0.8 м/с4 %
    18:00Небольшая облачность+25°C39 %748 мм1.2 м/с2 %
    21:00Ясно и безоблачно+20°C59 %748 мм2.0 м/с2 %
Мы используем cookies
Соглашаюсь